createdAt,value
2018-11-14T00:00:25.700Z,101544.14
2018-11-14T00:01:00.506Z,101537.31
2018-11-14T00:01:34.817Z,101546.70
2018-11-14T00:02:09.138Z,101545.37
2018-11-14T00:02:43.473Z,101549.29
2018-11-14T00:03:17.866Z,101553.13
2018-11-14T00:03:52.189Z,101544.14
2018-11-14T00:04:26.520Z,101551.44
2018-11-14T00:05:00.949Z,101551.44
2018-11-14T00:05:35.298Z,101550.16
2018-11-14T00:06:09.608Z,101548.44
2018-11-14T00:06:43.954Z,101551.87
2018-11-14T00:07:18.322Z,101542.47
2018-11-14T00:07:52.667Z,101539.89
2018-11-14T00:08:27.020Z,101530.91
2018-11-14T00:09:01.385Z,101547.58
2018-11-14T00:09:35.720Z,101545.85
2018-11-14T00:10:10.721Z,101539.42
2018-11-14T00:10:45.280Z,101543.24
2018-11-14T00:11:19.617Z,101541.52
2018-11-14T00:11:54.005Z,101547.13
2018-11-14T00:12:28.327Z,101543.67
2018-11-14T00:13:02.702Z,101533.02
2018-11-14T00:13:37.051Z,101542.03
2018-11-14T00:14:11.425Z,101536.45
2018-11-14T00:14:45.812Z,101544.15
2018-11-14T00:15:24.039Z,101540.75
2018-11-14T00:15:58.446Z,101545.00
2018-11-14T00:16:32.764Z,101544.56
2018-11-14T00:17:07.132Z,101539.89
2018-11-14T00:17:42.704Z,101547.99
2018-11-14T00:18:17.108Z,101538.98
2018-11-14T00:18:51.613Z,101538.09
2018-11-14T00:19:26.051Z,101542.80
2018-11-14T00:20:00.920Z,101545.39
2018-11-14T00:20:35.254Z,101535.97
2018-11-14T00:21:09.724Z,101546.66
2018-11-14T00:21:44.455Z,101541.09
2018-11-14T00:22:18.524Z,101547.58
2018-11-14T00:22:53.558Z,101543.72
2018-11-14T00:23:27.863Z,101539.45
2018-11-14T00:24:02.232Z,101545.91
2018-11-14T00:24:36.595Z,101539.47
2018-11-14T00:25:11.184Z,101539.07
2018-11-14T00:25:45.522Z,101533.48
2018-11-14T00:26:19.859Z,101534.78
2018-11-14T00:26:54.295Z,101539.03
2018-11-14T00:27:28.630Z,101542.89
2018-11-14T00:28:03.507Z,101538.98
2018-11-14T00:28:37.656Z,101546.28
2018-11-14T00:29:12.122Z,101542.85
2018-11-14T00:29:46.503Z,101543.71
2018-11-14T00:30:24.483Z,101547.62
2018-11-14T00:30:58.809Z,101540.28
2018-11-14T00:31:33.479Z,101543.29
2018-11-14T00:32:07.787Z,101543.33
2018-11-14T00:32:42.283Z,101535.98
2018-11-14T00:33:17.090Z,101539.84
2018-11-14T00:33:51.313Z,101540.32
2018-11-14T00:34:26.061Z,101538.61
2018-11-14T00:35:00.404Z,101530.87
2018-11-14T00:35:34.754Z,101536.88
2018-11-14T00:36:09.389Z,101534.73
2018-11-14T00:36:43.761Z,101536.03
2018-11-14T00:37:18.172Z,101529.15
2018-11-14T00:37:52.617Z,101535.60
2018-11-14T00:38:27.031Z,101533.92
2018-11-14T00:39:01.387Z,101540.36
2018-11-14T00:39:35.735Z,101532.20
2018-11-14T00:40:12.848Z,101541.22
2018-11-14T00:40:47.251Z,101536.45
2018-11-14T00:41:22.007Z,101541.22
2018-11-14T00:41:56.373Z,101541.26
2018-11-14T00:42:30.829Z,101537.82
2018-11-14T00:43:05.553Z,101530.95
2018-11-14T00:43:39.900Z,101530.95
2018-11-14T00:44:14.500Z,101535.67
2018-11-14T00:44:48.920Z,101538.64
2018-11-14T00:45:23.465Z,101536.03
2018-11-14T00:45:57.796Z,101535.16
2018-11-14T00:46:32.096Z,101534.34
2018-11-14T00:47:06.437Z,101538.17
2018-11-14T00:47:41.204Z,101536.45
2018-11-14T00:48:15.695Z,101521.51
2018-11-14T00:48:50.064Z,101536.50
2018-11-14T00:49:24.413Z,101537.78
2018-11-14T00:49:58.780Z,101541.19
2018-11-14T00:50:33.128Z,101540.36
2018-11-14T00:51:07.456Z,101537.39
2018-11-14T00:51:41.786Z,101537.82
2018-11-14T00:52:16.304Z,101548.13
2018-11-14T00:52:50.652Z,101531.84
2018-11-14T00:53:24.959Z,101543.41
2018-11-14T00:53:59.412Z,101539.14
2018-11-14T00:54:33.740Z,101548.56
2018-11-14T00:55:11.390Z,101546.84
2018-11-14T00:55:45.804Z,101548.98
2018-11-14T00:56:20.350Z,101552.02
2018-11-14T00:56:54.691Z,101551.16
2018-11-14T00:57:29.083Z,101550.34
2018-11-14T00:58:03.479Z,101553.31
2018-11-14T00:58:37.808Z,101554.60
2018-11-14T00:59:12.185Z,101555.03
2018-11-14T00:59:46.592Z,101556.78
2018-11-14T01:00:25.844Z,101559.75
2018-11-14T01:01:00.503Z,101558.92
2018-11-14T01:01:34.973Z,101556.38
2018-11-14T01:02:09.392Z,101554.20
2018-11-14T01:02:44.397Z,101556.80
2018-11-14T01:03:18.852Z,101561.95
2018-11-14T01:03:53.819Z,101560.18
2018-11-14T01:04:28.146Z,101558.00
2018-11-14T01:05:02.618Z,101561.90
2018-11-14T01:05:36.924Z,101567.45
2018-11-14T01:06:11.688Z,101564.91
2018-11-14T01:06:46.185Z,101562.39
2018-11-14T01:07:20.569Z,101562.36
2018-11-14T01:07:54.911Z,101564.47
2018-11-14T01:08:29.244Z,101566.59
2018-11-14T01:09:03.998Z,101565.30
2018-11-14T01:09:38.484Z,101573.86
2018-11-14T01:10:15.263Z,101568.34
2018-11-14T01:10:49.668Z,101567.94
2018-11-14T01:11:24.075Z,101566.63
2018-11-14T01:11:58.380Z,101565.77
2018-11-14T01:12:32.708Z,101574.38
2018-11-14T01:13:07.101Z,101564.96
2018-11-14T01:13:41.651Z,101571.83
2018-11-14T01:14:16.277Z,101573.11
2018-11-14T01:14:50.687Z,101573.14
2018-11-14T01:15:25.098Z,101569.70
2018-11-14T01:15:59.455Z,101569.30
2018-11-14T01:16:33.868Z,101566.68
2018-11-14T01:17:08.314Z,101570.97
2018-11-14T01:17:43.045Z,101571.83
2018-11-14T01:18:17.487Z,101573.06
2018-11-14T01:18:51.875Z,101570.05
2018-11-14T01:19:26.460Z,101571.77
2018-11-14T01:20:00.789Z,101566.59
2018-11-14T01:20:35.174Z,101568.73
2018-11-14T01:21:09.500Z,101569.17
2018-11-14T01:21:43.933Z,101573.46
2018-11-14T01:22:18.494Z,101569.63
2018-11-14T01:22:52.972Z,101569.66
2018-11-14T01:23:27.477Z,101567.51
2018-11-14T01:24:01.812Z,101569.63
2018-11-14T01:24:36.165Z,101563.19
2018-11-14T01:25:11.895Z,101562.36
2018-11-14T01:25:46.719Z,101571.38
2018-11-14T01:26:21.190Z,101565.80
2018-11-14T01:26:55.588Z,101567.05
2018-11-14T01:27:30.115Z,101564.05
2018-11-14T01:28:04.576Z,101570.09
2018-11-14T01:28:39.059Z,101561.93
2018-11-14T01:29:14.787Z,101567.08
2018-11-14T01:29:49.224Z,101558.95
2018-11-14T01:30:24.577Z,101568.80
2018-11-14T01:30:58.962Z,101563.65
2018-11-14T01:31:33.709Z,101565.73
2018-11-14T01:32:08.111Z,101564.91
2018-11-14T01:32:42.812Z,101559.35
2018-11-14T01:33:17.300Z,101567.94
2018-11-14T01:33:51.729Z,101568.40
2018-11-14T01:34:26.263Z,101558.52
2018-11-14T01:35:00.612Z,101559.38
2018-11-14T01:35:35.101Z,101561.95
2018-11-14T01:36:09.713Z,101558.52
2018-11-14T01:36:44.152Z,101558.95
2018-11-14T01:37:18.555Z,101557.23
2018-11-14T01:37:52.944Z,101562.39
2018-11-14T01:38:27.349Z,101572.26
2018-11-14T01:39:01.720Z,101567.51
2018-11-14T01:39:36.056Z,101569.66
2018-11-14T01:40:16.306Z,101567.94
2018-11-14T01:40:50.677Z,101565.36
2018-11-14T01:41:25.032Z,101563.22
2018-11-14T01:41:59.400Z,101568.83
2018-11-14T01:42:33.764Z,101563.19
2018-11-14T01:43:08.127Z,101561.93
2018-11-14T01:43:42.501Z,101560.21
2018-11-14T01:44:17.068Z,101557.63
2018-11-14T01:45:07.084Z,101555.92
2018-11-14T01:45:41.442Z,101555.92
2018-11-14T01:46:16.381Z,101559.35
2018-11-14T01:46:50.753Z,101555.06
2018-11-14T01:47:25.088Z,101561.95
2018-11-14T01:47:59.414Z,101560.20
2018-11-14T01:48:33.756Z,101565.36
2018-11-14T01:49:08.980Z,101561.06
2018-11-14T01:49:43.376Z,101564.53
2018-11-14T01:50:17.935Z,101568.37
2018-11-14T01:50:52.310Z,101559.35
2018-11-14T01:51:26.653Z,101559.78
2018-11-14T01:52:01.136Z,101559.81
2018-11-14T01:52:35.579Z,101556.80
2018-11-14T01:53:10.078Z,101561.95
2018-11-14T01:53:44.469Z,101558.92
2018-11-14T01:54:18.854Z,101559.81
2018-11-14T01:54:53.212Z,101563.24
2018-11-14T01:55:27.560Z,101562.81
2018-11-14T01:56:01.960Z,101557.66
2018-11-14T01:56:36.351Z,101555.52
2018-11-14T01:57:10.714Z,101553.38
2018-11-14T01:57:45.152Z,101556.38
2018-11-14T01:58:19.606Z,101552.09
2018-11-14T01:58:54.024Z,101555.98
2018-11-14T01:59:28.380Z,101549.51
2018-11-14T02:00:02.724Z,101548.65
2018-11-14T02:00:37.113Z,101555.09
2018-11-14T02:01:11.563Z,101549.51
2018-11-14T02:01:46.062Z,101549.52
2018-11-14T02:02:20.872Z,101549.48
2018-11-14T02:02:55.238Z,101549.94
2018-11-14T02:03:29.795Z,101549.97
2018-11-14T02:04:04.144Z,101549.96
2018-11-14T02:04:38.486Z,101549.99
2018-11-14T02:05:13.001Z,101545.67
2018-11-14T02:05:47.572Z,101548.28
2018-11-14T02:06:21.978Z,101549.13
2018-11-14T02:06:56.316Z,101549.98
2018-11-14T02:07:30.652Z,101548.72
2018-11-14T02:08:05.204Z,101550.84
2018-11-14T02:08:39.539Z,101546.55
2018-11-14T02:09:14.184Z,101542.69
2018-11-14T02:09:48.592Z,101544.84
2018-11-14T02:10:23.008Z,101543.98
2018-11-14T02:10:57.364Z,101529.83
2018-11-14T02:11:31.742Z,101535.00
2018-11-14T02:12:06.187Z,101537.56
2018-11-14T02:12:41.233Z,101535.02
2018-11-14T02:13:16.055Z,101542.73
2018-11-14T02:13:51.092Z,101535.39
2018-11-14T02:14:25.428Z,101533.68
2018-11-14T02:14:59.772Z,101542.72
2018-11-14T02:15:34.152Z,101541.02
2018-11-14T02:16:08.519Z,101544.86
2018-11-14T02:16:42.957Z,101540.14
2018-11-14T02:17:17.568Z,101544.44
2018-11-14T02:17:52.568Z,101542.73
2018-11-14T02:18:26.941Z,101542.31
2018-11-14T02:19:01.301Z,101544.45
2018-11-14T02:19:35.877Z,101542.30
2018-11-14T02:20:11.236Z,101541.87
2018-11-14T02:20:45.852Z,101547.02
2018-11-14T02:21:20.428Z,101538.88
2018-11-14T02:21:54.806Z,101535.90
2018-11-14T02:22:29.136Z,101542.73
2018-11-14T02:23:03.524Z,101532.89
2018-11-14T02:23:37.866Z,101531.17
2018-11-14T02:24:13.219Z,101537.18
2018-11-14T02:24:47.684Z,101533.30
2018-11-14T02:25:22.116Z,101532.46
2018-11-14T02:25:56.476Z,101534.61
2018-11-14T02:26:30.831Z,101535.03
2018-11-14T02:27:06.159Z,101535.47
2018-11-14T02:27:40.773Z,101532.47
2018-11-14T02:28:15.434Z,101538.88
2018-11-14T02:28:51.150Z,101533.75
2018-11-14T02:29:25.517Z,101537.20
2018-11-14T02:29:59.882Z,101531.61
2018-11-14T02:30:34.258Z,101531.19
2018-11-14T02:31:08.600Z,101532.90
2018-11-14T02:31:43.062Z,101535.05
2018-11-14T02:32:17.871Z,101537.64
2018-11-14T02:32:52.665Z,101533.78
2018-11-14T02:33:27.017Z,101537.63
2018-11-14T02:34:01.385Z,101538.92
2018-11-14T02:34:35.742Z,101538.06
2018-11-14T02:35:10.478Z,101540.21
2018-11-14T02:35:45.045Z,101541.52
2018-11-14T02:36:20.082Z,101535.50
2018-11-14T02:36:54.506Z,101538.08
2018-11-14T02:37:28.885Z,101533.81
2018-11-14T02:38:03.397Z,101529.92
2018-11-14T02:38:37.807Z,101532.06
2018-11-14T02:39:12.180Z,101529.92
2018-11-14T02:39:46.577Z,101527.36
2018-11-14T02:40:22.206Z,101528.64
2018-11-14T02:40:56.600Z,101528.66
2018-11-14T02:41:30.972Z,101526.09
2018-11-14T02:42:05.948Z,101523.09
2018-11-14T02:42:40.535Z,101527.38
2018-11-14T02:43:14.969Z,101525.67
2018-11-14T02:43:49.475Z,101522.66
2018-11-14T02:44:23.846Z,101529.94
2018-11-14T02:44:58.177Z,101529.92
2018-11-14T02:45:32.525Z,101518.80
2018-11-14T02:46:06.900Z,101527.80
2018-11-14T02:46:41.241Z,101525.23
2018-11-14T02:47:15.883Z,101526.53
2018-11-14T02:47:50.611Z,101526.94
2018-11-14T02:48:24.936Z,101523.95
2018-11-14T02:48:59.437Z,101523.50
2018-11-14T02:49:33.786Z,101520.52
2018-11-14T02:50:10.165Z,101523.95
2018-11-14T02:50:44.657Z,101531.23
2018-11-14T02:51:28.092Z,101523.09
2018-11-14T02:52:02.472Z,101517.51
2018-11-14T02:52:36.820Z,101515.80
2018-11-14T02:53:11.255Z,101516.68
2018-11-14T02:53:45.722Z,101518.80
2018-11-14T02:54:20.224Z,101520.95
2018-11-14T02:54:54.574Z,101518.80
2018-11-14T02:55:28.942Z,101523.96
2018-11-14T02:56:11.499Z,101523.53
2018-11-14T02:56:46.013Z,101517.52
2018-11-14T02:57:20.672Z,101518.39
2018-11-14T02:57:55.140Z,101521.39
2018-11-14T02:58:29.480Z,101515.80
2018-11-14T02:59:04.197Z,101517.96
2018-11-14T02:59:38.588Z,101515.39
2018-11-14T03:00:16.712Z,101520.95
2018-11-14T03:00:51.231Z,101513.25
2018-11-14T03:01:25.602Z,101520.53
2018-11-14T03:01:59.932Z,101511.53
2018-11-14T03:02:34.285Z,101509.38
2018-11-14T03:03:08.809Z,101505.94
2018-11-14T03:03:43.181Z,101511.97
2018-11-14T03:04:17.610Z,101513.67
2018-11-14T03:04:52.064Z,101509.81
2018-11-14T03:05:26.419Z,101514.53
2018-11-14T03:06:00.793Z,101503.80
2018-11-14T03:06:35.159Z,101508.53
2018-11-14T03:07:09.501Z,101510.24
2018-11-14T03:07:43.886Z,101504.67
2018-11-14T03:08:18.328Z,101499.09
2018-11-14T03:08:52.929Z,101508.95
2018-11-14T03:09:27.281Z,101497.38
2018-11-14T03:10:01.644Z,101508.09
2018-11-14T03:10:36.056Z,101504.67
2018-11-14T03:11:10.700Z,101505.50
2018-11-14T03:11:45.289Z,101509.80
2018-11-14T03:12:19.915Z,101503.80
2018-11-14T03:12:54.437Z,101507.66
2018-11-14T03:13:28.772Z,101501.66
2018-11-14T03:14:03.148Z,101514.51
2018-11-14T03:14:37.732Z,101505.10
2018-11-14T03:15:14.733Z,101502.95
2018-11-14T03:15:49.243Z,101501.66
2018-11-14T03:16:23.758Z,101508.09
2018-11-14T03:16:58.262Z,101508.95
2018-11-14T03:17:32.637Z,101507.66
2018-11-14T03:18:07.094Z,101507.25
2018-11-14T03:18:41.447Z,101496.53
2018-11-14T03:19:15.984Z,101501.67
2018-11-14T03:19:50.576Z,101502.52
2018-11-14T03:20:24.933Z,101497.38
2018-11-14T03:20:59.344Z,101505.95
2018-11-14T03:21:33.732Z,101506.80
2018-11-14T03:22:08.275Z,101505.94
2018-11-14T03:22:42.650Z,101503.81
2018-11-14T03:23:17.318Z,101504.66
2018-11-14T03:23:51.839Z,101497.81
2018-11-14T03:24:26.205Z,101507.66
2018-11-14T03:25:00.624Z,101507.67
2018-11-14T03:25:34.992Z,101506.38
2018-11-14T03:26:09.384Z,101505.50
2018-11-14T03:26:43.796Z,101511.95
2018-11-14T03:27:18.325Z,101504.23
2018-11-14T03:27:52.880Z,101506.81
2018-11-14T03:28:27.379Z,101509.81
2018-11-14T03:29:01.745Z,101505.52
2018-11-14T03:29:36.128Z,101514.09
2018-11-14T03:30:13.264Z,101509.81
2018-11-14T03:30:47.749Z,101510.22
2018-11-14T03:31:22.206Z,101507.66
2018-11-14T03:31:56.580Z,101513.22
2018-11-14T03:32:30.942Z,101510.66
2018-11-14T03:33:05.708Z,101510.65
2018-11-14T03:33:40.131Z,101500.82
2018-11-14T03:34:14.665Z,101507.23
2018-11-14T03:34:49.307Z,101509.38
2018-11-14T03:35:24.017Z,101509.38
2018-11-14T03:36:03.737Z,101513.23
2018-11-14T03:36:38.321Z,101506.38
2018-11-14T03:37:12.753Z,101506.39
2018-11-14T03:37:47.211Z,101515.80
2018-11-14T03:38:21.972Z,101512.36
2018-11-14T03:38:56.366Z,101508.96
2018-11-14T03:39:30.741Z,101506.38
2018-11-14T03:40:06.378Z,101501.67
2018-11-14T03:40:40.777Z,101508.96
2018-11-14T03:41:15.485Z,101504.25
2018-11-14T03:41:50.064Z,101501.23
2018-11-14T03:42:24.732Z,101505.08
2018-11-14T03:42:59.272Z,101505.94
2018-11-14T03:43:36.535Z,101503.38
2018-11-14T03:44:10.925Z,101504.67
2018-11-14T03:44:45.515Z,101511.11
2018-11-14T03:45:20.038Z,101507.66
2018-11-14T03:45:54.452Z,101504.22
2018-11-14T03:46:29.073Z,101519.67
2018-11-14T03:47:03.485Z,101508.08
2018-11-14T03:47:38.159Z,101508.11
2018-11-14T03:48:12.552Z,101513.22
2018-11-14T03:48:47.090Z,101510.23
2018-11-14T03:49:21.629Z,101514.94
2018-11-14T03:49:56.074Z,101509.39
2018-11-14T03:50:30.836Z,101507.66
2018-11-14T03:51:05.299Z,101506.80
2018-11-14T03:51:39.710Z,101505.09
2018-11-14T03:52:14.458Z,101516.25
2018-11-14T03:52:48.929Z,101504.67
2018-11-14T03:53:23.373Z,101510.23
2018-11-14T03:53:57.780Z,101506.83
2018-11-14T03:54:32.183Z,101517.97
2018-11-14T03:55:07.029Z,101517.08
2018-11-14T03:55:41.434Z,101512.81
2018-11-14T03:56:16.333Z,101514.09
2018-11-14T03:56:50.799Z,101512.80
2018-11-14T03:57:25.220Z,101515.39
2018-11-14T03:57:59.610Z,101522.66
2018-11-14T03:58:34.083Z,101518.37
2018-11-14T03:59:08.586Z,101524.38
2018-11-14T03:59:42.996Z,101527.81
2018-11-14T04:00:17.736Z,101522.66
2018-11-14T04:00:52.342Z,101521.36
2018-11-14T04:01:26.800Z,101526.06
2018-11-14T04:02:01.202Z,101519.21
2018-11-14T04:02:35.783Z,101518.34
2018-11-14T04:03:10.276Z,101523.92
2018-11-14T04:03:44.872Z,101520.91
2018-11-14T04:04:19.296Z,101526.48
2018-11-14T04:04:53.921Z,101523.92
2018-11-14T04:05:28.315Z,101491.33
2018-11-14T04:06:02.941Z,101523.06
2018-11-14T04:06:37.395Z,101526.05
2018-11-14T04:07:12.001Z,101524.78
2018-11-14T04:07:46.477Z,101525.18
2018-11-14T04:08:20.986Z,101520.02
2018-11-14T04:08:55.385Z,101511.46
2018-11-14T04:09:29.808Z,101521.33
2018-11-14T04:10:05.790Z,101521.73
2018-11-14T04:10:40.335Z,101519.16
2018-11-14T04:11:14.789Z,101520.02
2018-11-14T04:11:49.286Z,101516.59
2018-11-14T04:12:23.820Z,101521.72
2018-11-14T04:12:58.455Z,101516.59
2018-11-14T04:13:32.824Z,101518.30
2018-11-14T04:14:07.286Z,101514.03
2018-11-14T04:14:41.687Z,101515.33
2018-11-14T04:15:16.800Z,101516.59
2018-11-14T04:15:51.506Z,101511.02
2018-11-14T04:16:25.939Z,101510.60
2018-11-14T04:17:00.328Z,101507.59
2018-11-14T04:17:34.818Z,101508.88
2018-11-14T04:18:09.173Z,101499.03
2018-11-14T04:18:43.595Z,101511.46
2018-11-14T04:19:18.251Z,101507.16
2018-11-14T04:19:52.732Z,101510.59
2018-11-14T04:20:27.137Z,101504.59
2018-11-14T04:21:01.502Z,101496.02
2018-11-14T04:21:35.923Z,101500.31
2018-11-14T04:22:10.296Z,101501.59
2018-11-14T04:22:45.294Z,101502.45
2018-11-14T04:23:19.989Z,101498.19
2018-11-14T04:23:54.420Z,101504.19
2018-11-14T04:24:28.816Z,101496.91
2018-11-14T04:25:03.181Z,101495.20
2018-11-14T04:25:37.517Z,101502.05
2018-11-14T04:26:11.868Z,101504.63
2018-11-14T04:26:46.349Z,101500.76
2018-11-14T04:27:20.976Z,101497.77
2018-11-14T04:27:55.369Z,101500.34
2018-11-14T04:28:29.757Z,101491.77
2018-11-14T04:29:04.161Z,101501.20
2018-11-14T04:29:38.521Z,101499.48
2018-11-14T04:30:16.661Z,101495.65
2018-11-14T04:30:51.200Z,101504.19
2018-11-14T04:31:25.615Z,101496.47
2018-11-14T04:32:00.085Z,101496.91
2018-11-14T04:32:34.576Z,101497.34
2018-11-14T04:33:08.951Z,101493.05
2018-11-14T04:33:43.634Z,101503.33
2018-11-14T04:34:18.121Z,101500.31
2018-11-14T04:34:52.702Z,101500.77
2018-11-14T04:35:27.069Z,101498.19
2018-11-14T04:36:01.437Z,101496.47
2018-11-14T04:36:35.811Z,101494.77
2018-11-14T04:37:10.611Z,101495.18
2018-11-14T04:37:45.148Z,101496.91
2018-11-14T04:38:19.784Z,101490.06
2018-11-14T04:38:54.300Z,101499.47
2018-11-14T04:39:28.696Z,101490.92
2018-11-14T04:40:03.108Z,101493.47
2018-11-14T04:40:37.477Z,101499.02
2018-11-14T04:41:11.871Z,101497.76
2018-11-14T04:41:46.249Z,101499.48
2018-11-14T04:42:20.740Z,101501.19
2018-11-14T04:42:55.180Z,101500.75
2018-11-14T04:43:29.562Z,101496.05
2018-11-14T04:44:04.733Z,101498.20
2018-11-14T04:44:39.080Z,101499.47
2018-11-14T04:45:14.887Z,101500.75
2018-11-14T04:45:49.292Z,101493.91
2018-11-14T04:46:23.736Z,101495.20
2018-11-14T04:46:58.099Z,101493.47
2018-11-14T04:47:32.530Z,101493.49
2018-11-14T04:48:06.953Z,101491.77
2018-11-14T04:48:41.489Z,101496.48
2018-11-14T04:49:16.389Z,101494.34
2018-11-14T04:49:50.882Z,101488.77
2018-11-14T04:50:26.405Z,101486.20
2018-11-14T04:51:00.774Z,101489.62
2018-11-14T04:51:35.160Z,101487.05
2018-11-14T04:52:09.550Z,101493.47
2018-11-14T04:52:44.932Z,101490.49
2018-11-14T04:53:19.344Z,101491.78
2018-11-14T04:53:53.708Z,101487.92
2018-11-14T04:54:28.062Z,101485.34
2018-11-14T04:55:02.461Z,101486.62
2018-11-14T04:55:37.187Z,101484.48
2018-11-14T04:56:11.556Z,101490.50
2018-11-14T04:56:46.014Z,101483.63
2018-11-14T04:57:20.393Z,101478.94
2018-11-14T04:57:54.816Z,101481.92
2018-11-14T04:58:29.216Z,101483.66
2018-11-14T04:59:03.580Z,101483.22
2018-11-14T04:59:37.931Z,101483.66
2018-11-14T05:00:13.774Z,101480.22
2018-11-14T05:00:48.187Z,101488.34
2018-11-14T05:01:22.664Z,101478.93
2018-11-14T05:01:57.060Z,101481.92
2018-11-14T05:02:31.449Z,101482.77
2018-11-14T05:03:06.560Z,101476.34
2018-11-14T05:03:40.980Z,101479.33
2018-11-14T05:04:15.668Z,101486.62
2018-11-14T05:04:50.105Z,101481.89
2018-11-14T05:05:25.269Z,101483.20
2018-11-14T05:05:59.637Z,101486.17
2018-11-14T05:06:34.077Z,101489.17
2018-11-14T05:07:08.431Z,101487.89
2018-11-14T05:07:42.820Z,101487.05
2018-11-14T05:08:17.252Z,101484.48
2018-11-14T05:08:51.696Z,101481.03
2018-11-14T05:09:26.104Z,101487.04
2018-11-14T05:10:00.513Z,101484.47
2018-11-14T05:10:34.970Z,101485.78
2018-11-14T05:11:09.448Z,101483.19
2018-11-14T05:11:43.896Z,101487.93
2018-11-14T05:12:18.374Z,101486.63
2018-11-14T05:12:53.216Z,101475.47
2018-11-14T05:13:27.807Z,101486.63
2018-11-14T05:14:02.171Z,101490.05
2018-11-14T05:14:36.561Z,101488.36
2018-11-14T05:15:12.504Z,101481.49
2018-11-14T05:15:47.022Z,101487.06
2018-11-14T05:16:21.936Z,101485.34
2018-11-14T05:16:56.289Z,101481.91
2018-11-14T05:17:30.656Z,101487.91
2018-11-14T05:18:05.432Z,101478.93
2018-11-14T05:18:39.779Z,101483.20
2018-11-14T05:19:14.489Z,101480.63
2018-11-14T05:19:49.014Z,101484.49
2018-11-14T05:20:23.637Z,101472.48
2018-11-14T05:20:58.033Z,101479.79
2018-11-14T05:21:32.527Z,101476.38
2018-11-14T05:22:06.989Z,101477.22
2018-11-14T05:22:41.576Z,101478.50
2018-11-14T05:23:16.074Z,101472.52
2018-11-14T05:23:50.448Z,101472.51
2018-11-14T05:24:25.017Z,101478.94
2018-11-14T05:24:59.525Z,101476.80
2018-11-14T05:25:33.918Z,101478.05
2018-11-14T05:26:08.241Z,101477.20
2018-11-14T05:26:42.604Z,101486.19
2018-11-14T05:27:17.044Z,101487.07
2018-11-14T05:27:51.732Z,101487.47
2018-11-14T05:28:26.139Z,101485.33
2018-11-14T05:29:00.525Z,101491.77
2018-11-14T05:29:34.903Z,101486.61
2018-11-14T05:30:12.145Z,101495.61
2018-11-14T05:30:46.660Z,101490.05
2018-11-14T05:31:21.308Z,101487.91
2018-11-14T05:31:55.696Z,101489.61
2018-11-14T05:32:30.255Z,101486.21
2018-11-14T05:33:04.691Z,101481.91
2018-11-14T05:33:39.098Z,101482.32
2018-11-14T05:34:13.565Z,101475.07
2018-11-14T05:34:48.227Z,101480.63
2018-11-14T05:35:22.667Z,101470.34
2018-11-14T05:35:57.023Z,101471.21
2018-11-14T05:36:31.432Z,101475.47
2018-11-14T05:37:06.077Z,101472.50
2018-11-14T05:37:40.699Z,101472.92
2018-11-14T05:38:15.478Z,101467.77
2018-11-14T05:38:50.095Z,101475.47
2018-11-14T05:39:24.542Z,101476.75
2018-11-14T05:39:58.919Z,101467.75
2018-11-14T05:40:33.605Z,101476.34
2018-11-14T05:41:07.972Z,101481.91
2018-11-14T05:41:42.376Z,101478.89
2018-11-14T05:42:16.968Z,101481.01
2018-11-14T05:42:52.137Z,101478.03
2018-11-14T05:43:26.644Z,101482.30
2018-11-14T05:44:01.060Z,101472.41
2018-11-14T05:44:35.747Z,101479.27
2018-11-14T05:45:14.268Z,101477.53
2018-11-14T05:45:49.059Z,101478.38
2018-11-14T05:46:23.626Z,101473.25
2018-11-14T05:46:57.999Z,101472.02
2018-11-14T05:47:32.368Z,101478.44
2018-11-14T05:48:07.053Z,101475.00
2018-11-14T05:48:41.421Z,101471.55
2018-11-14T05:49:16.355Z,101478.86
2018-11-14T05:49:50.873Z,101477.15
2018-11-14T05:50:25.279Z,101479.31
2018-11-14T05:50:59.672Z,101474.59
2018-11-14T05:51:34.106Z,101478.44
2018-11-14T05:52:08.612Z,101473.31
2018-11-14T05:52:43.670Z,101480.58
2018-11-14T05:53:18.183Z,101477.16
2018-11-14T05:53:52.616Z,101470.30
2018-11-14T05:54:27.111Z,101475.84
2018-11-14T05:55:01.696Z,101471.13
2018-11-14T05:55:36.234Z,101468.13
2018-11-14T05:56:10.607Z,101470.67
2018-11-14T05:56:45.160Z,101464.26
2018-11-14T05:57:19.660Z,101465.09
2018-11-14T05:57:54.146Z,101465.95
2018-11-14T05:58:28.512Z,101465.09
2018-11-14T05:59:02.897Z,101465.95
2018-11-14T05:59:37.282Z,101466.79
2018-11-14T06:00:25.594Z,101474.49
2018-11-14T06:00:59.974Z,101474.05
2018-11-14T06:01:34.452Z,101472.36
2018-11-14T06:02:08.820Z,101465.03
2018-11-14T06:02:44.248Z,101451.34
2018-11-14T06:03:19.220Z,101465.05
2018-11-14T06:03:53.667Z,101464.62
2018-11-14T06:04:28.137Z,101463.73
2018-11-14T06:05:02.495Z,101463.75
2018-11-14T06:05:36.880Z,101463.33
2018-11-14T06:06:11.273Z,101467.63
2018-11-14T06:06:45.702Z,101466.35
2018-11-14T06:07:20.351Z,101463.78
2018-11-14T06:07:54.992Z,101461.67
2018-11-14T06:08:29.391Z,101461.67
2018-11-14T06:09:04.430Z,101458.66
2018-11-14T06:09:38.801Z,101466.79
2018-11-14T06:10:13.604Z,101457.37
2018-11-14T06:10:48.073Z,101458.23
2018-11-14T06:11:22.659Z,101460.80
2018-11-14T06:11:57.057Z,101461.23
2018-11-14T06:12:31.568Z,101462.50
2018-11-14T06:13:05.960Z,101461.64
2018-11-14T06:13:40.429Z,101451.39
2018-11-14T06:14:14.876Z,101459.94
2018-11-14T06:14:49.552Z,101453.95
2018-11-14T06:15:24.154Z,101456.52
2018-11-14T06:15:58.653Z,101453.51
2018-11-14T06:16:33.020Z,101455.27
2018-11-14T06:17:07.394Z,101458.69
2018-11-14T06:17:43.103Z,101459.92
2018-11-14T06:18:17.632Z,101455.66
2018-11-14T06:18:52.066Z,101462.05
2018-11-14T06:19:26.508Z,101460.73
2018-11-14T06:20:00.852Z,101462.02
2018-11-14T06:20:35.304Z,101459.03
2018-11-14T06:21:09.666Z,101464.16
2018-11-14T06:21:44.184Z,101456.86
2018-11-14T06:22:18.838Z,101455.14
2018-11-14T06:22:53.768Z,101468.85
2018-11-14T06:23:28.214Z,101468.85
2018-11-14T06:24:03.215Z,101466.31
2018-11-14T06:24:37.612Z,101471.00
2018-11-14T06:25:27.428Z,101464.56
2018-11-14T06:26:01.957Z,101459.44
2018-11-14T06:26:36.328Z,101465.83
2018-11-14T06:27:10.806Z,101465.43
2018-11-14T06:27:45.435Z,101468.44
2018-11-14T06:28:19.893Z,101462.42
2018-11-14T06:28:54.290Z,101465.42
2018-11-14T06:29:28.642Z,101463.27
2018-11-14T06:30:03.058Z,101459.42
2018-11-14T06:30:38.605Z,101465.43
2018-11-14T06:31:13.231Z,101468.03
2018-11-14T06:31:47.739Z,101464.16
2018-11-14T06:32:22.128Z,101460.70
2018-11-14T06:32:57.019Z,101461.59
2018-11-14T06:33:31.410Z,101463.31
2018-11-14T06:34:06.610Z,101465.42
2018-11-14T06:34:40.986Z,101462.00
2018-11-14T06:35:16.613Z,101462.00
2018-11-14T06:35:51.226Z,101465.84